Time;durP1;ratioP1;P1;durP2;ratioP2;P2;SDS_P1;SDS_P2;PMS_P1;PMS_P2;Temp;Humidity;BMP_temperature;BMP_pressure;BME280_temperature;BME280_humidity;BME280_pressure;Samples;Min_cycle;Max_cycle;Signal;HPM_P1;HPM_P2
2022/05/20 00:01:57;;;;;;;35.17;29.90;;;;;;;17.15;63.91;102115.00;5009540;28;20485;-63
2022/05/20 00:04:22;;;;;;;33.10;29.38;;;;;;;17.08;63.86;102121.94;5022177;28;20034;-63
2022/05/20 00:06:47;;;;;;;34.80;28.63;;;;;;;17.07;63.86;102118.28;5012772;28;20118;-62
2022/05/20 00:09:13;;;;;;;33.60;29.40;;;;;;;17.03;63.82;102113.47;5012871;28;20093;-63
2022/05/20 00:11:38;;;;;;;32.17;28.98;;;;;;;17.01;63.79;102118.50;5011868;28;20044;-63
2022/05/20 00:14:05;;;;;;;32.30;28.92;;;;;;;16.96;63.96;102112.84;5011886;28;20038;-63
2022/05/20 00:16:31;;;;;;;35.38;29.33;;;;;;;16.93;63.99;102112.25;5012274;28;20458;-63
2022/05/20 00:18:56;;;;;;;33.65;29.80;;;;;;;16.89;64.22;102108.28;5011243;28;20105;-63
2022/05/20 00:21:21;;;;;;;33.67;29.90;;;;;;;16.93;64.26;102117.00;5006045;28;20469;-63
2022/05/20 00:23:47;;;;;;;33.20;29.67;;;;;;;16.89;63.99;102113.88;5010489;28;20026;-63
2022/05/20 00:26:12;;;;;;;36.08;29.05;;;;;;;16.90;64.04;102112.81;5011783;28;20037;-63
2022/05/20 00:28:37;;;;;;;31.65;28.25;;;;;;;16.81;63.58;102114.38;5008981;28;20030;-63
2022/05/20 00:31:06;;;;;;;35.05;30.00;;;;;;;16.80;64.29;102109.03;5009765;28;20040;-63
2022/05/20 00:33:33;;;;;;;32.05;28.77;;;;;;;16.73;64.04;102100.81;5009462;28;20032;-63
2022/05/20 00:35:58;;;;;;;31.02;26.52;;;;;;;16.78;63.98;102097.22;5013273;28;20504;-63
2022/05/20 00:38:24;;;;;;;30.17;27.02;;;;;;;16.81;63.46;102103.16;5013975;28;20046;-63
2022/05/20 00:40:52;;;;;;;31.85;27.55;;;;;;;16.77;63.96;102102.00;5011259;28;20029;-63
2022/05/20 00:43:26;;;;;;;32.63;27.50;;;;;;;16.69;63.84;102097.66;5012649;28;20045;-63
2022/05/20 00:46:20;;;;;;;29.38;26.17;;;;;;;16.77;63.62;102099.19;5009002;28;20025;-63
2022/05/20 00:48:48;;;;;;;32.28;25.85;;;;;;;16.60;63.48;102096.47;5006386;28;20057;-63
2022/05/20 00:51:28;;;;;;;29.65;26.55;;;;;;;16.64;63.83;102093.97;5012161;28;20397;-63
2022/05/20 00:54:13;;;;;;;28.80;25.70;;;;;;;16.64;63.80;102096.78;5011806;28;20081;-63
2022/05/20 00:56:44;;;;;;;28.90;25.88;;;;;;;16.55;63.82;102089.97;4993928;28;20034;-63
2022/05/20 00:59:14;;;;;;;28.38;25.27;;;;;;;16.46;63.56;102097.97;5009540;28;20044;-62
2022/05/20 01:01:40;;;;;;;30.77;26.00;;;;;;;16.43;63.78;102095.72;5011205;28;20033;-62
2022/05/20 01:04:08;;;;;;;29.17;25.75;;;;;;;16.45;63.67;102091.53;5008002;28;20040;-63
2022/05/20 01:06:33;;;;;;;29.95;25.80;;;;;;;16.40;63.88;102102.69;5011715;28;20120;-63
2022/05/20 01:08:59;;;;;;;27.67;24.77;;;;;;;16.42;63.83;102094.00;5017004;28;20549;-63
2022/05/20 01:11:25;;;;;;;28.85;25.75;;;;;;;16.47;64.07;102102.50;5010764;28;20025;-63
2022/05/20 01:13:52;;;;;;;28.67;25.20;;;;;;;16.44;63.63;102103.00;5011841;28;20034;-63
2022/05/20 01:16:20;;;;;;;30.77;26.63;;;;;;;16.37;63.94;102103.19;5009864;28;20133;-63
2022/05/20 01:18:47;;;;;;;27.48;24.58;;;;;;;16.33;63.89;102106.78;5010844;28;20040;-63
2022/05/20 01:21:13;;;;;;;28.52;25.63;;;;;;;16.32;63.65;102105.09;5008792;28;20173;-63
2022/05/20 01:23:39;;;;;;;29.20;25.48;;;;;;;16.31;63.63;102101.47;5009228;28;20537;-64
2022/05/20 01:26:06;;;;;;;27.60;24.63;;;;;;;16.22;63.74;102102.16;5012120;28;20065;-63
2022/05/20 01:28:33;;;;;;;29.17;26.08;;;;;;;16.19;63.85;102097.91;5015828;28;20029;-63
2022/05/20 01:31:05;;;;;;;28.50;25.38;;;;;;;16.17;64.02;102097.34;5010454;28;20543;-63
2022/05/20 01:33:33;;;;;;;29.15;25.92;;;;;;;16.21;63.79;102095.72;5009918;28;20047;-63
2022/05/20 01:36:00;;;;;;;28.23;25.15;;;;;;;16.16;63.85;102090.06;5012020;28;20026;-63
2022/05/20 01:38:26;;;;;;;29.45;26.15;;;;;;;16.14;63.74;102087.50;5004744;28;20045;-64
2022/05/20 01:40:56;;;;;;;29.90;26.40;;;;;;;16.13;63.80;102084.97;5009255;28;20029;-63
2022/05/20 01:43:28;;;;;;;30.85;26.90;;;;;;;16.17;64.13;102072.13;5008216;28;20022;-63
2022/05/20 01:46:01;;;;;;;30.17;26.80;;;;;;;16.11;63.89;102081.56;5011101;28;20041;-64
2022/05/20 01:48:47;;;;;;;29.42;26.23;;;;;;;16.10;64.04;102074.28;5006580;28;20017;-63
2022/05/20 01:51:16;;;;;;;29.40;26.30;;;;;;;16.03;64.05;102062.41;5010947;28;20121;-64
2022/05/20 01:53:50;;;;;;;29.63;26.55;;;;;;;16.05;64.30;102068.63;5010326;28;20025;-64
2022/05/20 01:56:22;;;;;;;32.20;27.13;;;;;;;15.99;64.25;102066.84;4992744;28;20112;-64
2022/05/20 01:58:58;;;;;;;;;;;;;;;16.32;62.83;102065.88;4995450;28;20041;-63
2022/05/20 02:01:29;;;;;;;28.48;25.40;;;;;;;16.01;63.62;102064.66;5009835;28;19929;-63
2022/05/20 02:04:02;;;;;;;28.75;25.65;;;;;;;15.90;63.98;102074.84;5011420;28;20034;-63
2022/05/20 02:06:38;;;;;;;27.45;24.40;;;;;;;15.91;63.88;102060.59;5011229;28;20030;-64
2022/05/20 02:09:19;;;;;;;27.80;25.00;;;;;;;15.92;63.92;102062.31;5011500;28;20033;-63
2022/05/20 02:11:47;;;;;;;29.80;26.40;;;;;;;15.84;64.04;102050.72;5006851;28;20700;-63
2022/05/20 02:14:16;;;;;;;29.35;26.25;;;;;;;15.85;63.87;102050.44;5011729;28;20056;-63
2022/05/20 02:16:46;;;;;;;28.98;25.90;;;;;;;15.77;63.69;102055.66;5010308;28;20517;-63
2022/05/20 02:19:22;;;;;;;30.00;26.95;;;;;;;15.75;64.22;102053.09;5009527;28;20029;-64
2022/05/20 02:21:53;;;;;;;31.20;27.88;;;;;;;15.71;64.41;102061.16;5009739;28;20113;-64
2022/05/20 02:24:22;;;;;;;32.88;27.40;;;;;;;15.72;64.16;102064.81;5011378;28;20141;-63
2022/05/20 02:26:53;;;;;;;30.23;27.17;;;;;;;15.69;64.34;102059.75;5009576;28;20038;-63
2022/05/20 02:29:23;;;;;;;31.30;27.90;;;;;;;15.65;64.20;102059.41;5006476;28;20411;-63
2022/05/20 02:32:03;;;;;;;31.15;27.88;;;;;;;15.64;64.04;102048.41;5011222;28;20153;-63
2022/05/20 02:34:29;;;;;;;30.13;26.80;;;;;;;15.66;64.00;102051.84;5009460;28;20041;-64
2022/05/20 02:36:54;;;;;;;31.60;28.27;;;;;;;15.64;63.92;102059.59;5008495;28;20049;-63
2022/05/20 02:39:21;;;;;;;31.90;28.50;;;;;;;15.60;64.21;102052.84;5010343;28;20080;-63
2022/05/20 02:41:48;;;;;;;35.15;29.50;;;;;;;15.59;64.04;102068.78;5008934;28;20067;-63
2022/05/20 02:44:16;;;;;;;33.90;30.27;;;;;;;15.57;64.08;102065.41;5006441;28;20030;-64
2022/05/20 02:46:46;;;;;;;33.28;29.73;;;;;;;15.54;64.35;102062.28;5009694;28;20515;-63
2022/05/20 02:49:12;;;;;;;33.60;29.90;;;;;;;15.60;64.25;102047.25;5011224;28;20022;-64
2022/05/20 02:51:37;;;;;;;34.13;30.05;;;;;;;15.50;64.29;102055.50;5008840;28;20080;-64
2022/05/20 02:54:04;;;;;;;36.45;31.27;;;;;;;15.50;64.33;102058.31;5008675;28;20038;-64
2022/05/20 02:56:30;;;;;;;35.30;31.30;;;;;;;15.49;64.32;102053.81;5011131;28;20093;-63
2022/05/20 03:04:22;;;;;;;34.63;30.25;;;;;;;15.41;64.54;102053.16;5010215;28;20096;-64
2022/05/20 03:06:50;;;;;;;35.45;29.15;;;;;;;15.38;64.22;102052.81;5010693;28;20423;-64
2022/05/20 03:09:18;;;;;;;33.35;28.17;;;;;;;15.35;64.29;102042.97;5010295;28;20061;-63
2022/05/20 03:11:43;;;;;;;32.83;28.77;;;;;;;15.31;64.62;102038.97;5010830;28;20085;-63
2022/05/20 03:14:10;;;;;;;33.55;29.95;;;;;;;15.32;64.68;102048.22;5008386;28;20022;-64
2022/05/20 03:16:37;;;;;;;32.95;29.23;;;;;;;15.34;64.50;102044.06;5007715;28;20069;-64
2022/05/20 03:19:04;;;;;;;31.90;28.48;;;;;;;15.33;64.48;102041.53;5009911;28;20491;-63
2022/05/20 03:21:30;;;;;;;31.55;27.40;;;;;;;15.29;64.58;102052.41;5010169;28;20030;-64
2022/05/20 03:24:04;;;;;;;33.97;28.25;;;;;;;15.33;64.45;102052.75;5009952;28;20113;-63
2022/05/20 03:26:29;;;;;;;36.75;29.50;;;;;;;15.29;64.42;102046.81;5010460;28;20022;-63
2022/05/20 03:28:59;;;;;;;33.28;29.67;;;;;;;15.28;64.72;102042.28;5014847;28;20040;-63
2022/05/20 03:31:25;;;;;;;31.55;28.33;;;;;;;15.33;64.88;102044.34;5013412;28;20504;-64
2022/05/20 03:33:50;;;;;;;32.67;29.20;;;;;;;15.33;64.76;102042.38;5008563;28;20065;-63
2022/05/20 03:36:15;;;;;;;34.53;28.70;;;;;;;15.34;64.53;102044.06;5005778;28;20394;-63
2022/05/20 03:38:40;;;;;;;34.05;30.40;;;;;;;15.21;64.96;102039.69;5010337;28;20172;-63
2022/05/20 03:41:06;;;;;;;34.40;30.40;;;;;;;15.27;65.03;102043.41;5010278;28;20481;-63
2022/05/20 03:43:33;;;;;;;38.72;30.80;;;;;;;15.25;65.26;102047.53;5009051;28;20037;-63
2022/05/20 03:45:59;;;;;;;36.40;29.65;;;;;;;15.20;65.12;102048.31;5010024;28;20042;-63
2022/05/20 03:48:24;;;;;;;36.50;32.65;;;;;;;15.18;65.34;102039.34;5010353;28;20087;-64
2022/05/20 03:50:49;;;;;;;36.78;31.33;;;;;;;15.28;65.51;102022.72;5000925;28;20481;-63
2022/05/20 03:53:15;;;;;;;38.78;33.25;;;;;;;15.28;65.73;102028.31;5009071;28;20420;-64
2022/05/20 03:55:40;;;;;;;40.78;33.45;;;;;;;15.28;66.10;102016.28;5009918;28;20030;-63
2022/05/20 03:58:06;;;;;;;40.45;33.60;;;;;;;15.33;66.20;102025.59;5010495;28;20053;-64
2022/05/20 04:01:56;;;;;;;43.53;35.28;;;;;;;15.29;65.86;102018.84;5010573;28;20470;-63
2022/05/20 04:03:18;;;;;;;38.63;34.08;;;;;;;15.32;65.98;102007.09;5009287;28;20037;-63
2022/05/20 04:05:43;;;;;;;44.10;35.90;;;;;;;15.30;65.93;102000.09;5011790;28;20029;-63
2022/05/20 04:08:09;;;;;;;45.17;35.10;;;;;;;15.32;65.80;102001.50;5012765;28;20041;-63
2022/05/20 04:10:34;;;;;;;42.85;34.53;;;;;;;15.27;65.82;102004.25;5013925;28;20044;-63
2022/05/20 04:12:59;;;;;;;38.72;33.03;;;;;;;15.23;65.89;102003.91;5012185;28;20033;-63
2022/05/20 04:15:25;;;;;;;41.35;35.90;;;;;;;15.24;65.74;102001.94;5010833;28;20034;-64
2022/05/20 04:17:50;;;;;;;40.42;33.65;;;;;;;15.23;65.70;101994.66;5011633;28;20044;-64
2022/05/20 04:20:15;;;;;;;40.33;33.22;;;;;;;15.23;65.56;101989.06;5012490;28;20047;-63
2022/05/20 04:22:40;;;;;;;41.13;33.25;;;;;;;15.19;65.77;101993.50;5008865;28;20370;-63
2022/05/20 04:25:07;;;;;;;37.00;33.00;;;;;;;15.21;65.47;101988.50;5004844;28;20125;-62
2022/05/20 04:27:35;;;;;;;35.35;31.52;;;;;;;15.23;65.37;101994.66;5011915;28;20783;-63
2022/05/20 04:30:00;;;;;;;42.33;34.85;;;;;;;15.26;65.76;101996.13;5011554;28;20073;-64
2022/05/20 04:32:25;;;;;;;42.65;34.40;;;;;;;15.21;66.00;102002.47;5009654;28;20536;-64
2022/05/20 04:34:51;;;;;;;42.33;33.60;;;;;;;15.23;66.01;102003.06;4996663;28;20491;-65
2022/05/20 04:37:16;;;;;;;41.55;34.28;;;;;;;15.22;66.19;101990.19;5008309;28;20493;-65
2022/05/20 04:39:44;;;;;;;47.75;34.47;;;;;;;15.27;66.51;101997.81;5006039;28;20453;-65
2022/05/20 04:47:41;;;;;;;41.60;34.22;;;;;;;15.23;66.86;101995.50;5005892;28;20045;-64
2022/05/20 04:50:07;;;;;;;41.22;35.83;;;;;;;15.19;67.14;102013.91;5012161;28;20038;-65
2022/05/20 04:52:33;;;;;;;41.92;35.22;;;;;;;15.21;67.38;102027.66;5012186;28;20564;-66
2022/05/20 04:54:58;;;;;;;44.17;35.20;;;;;;;15.20;67.77;102023.13;5008519;28;20045;-65
2022/05/20 04:57:59;;;;;;;44.70;36.33;;;;;;;15.33;66.71;102025.59;5032610;28;20034;-65
2022/05/20 05:00:28;;;;;;;44.30;35.80;;;;;;;15.20;68.10;102028.75;4975862;28;20074;-64
2022/05/20 05:02:54;;;;;;;46.45;36.35;;;;;;;15.22;67.84;102026.53;4999574;28;20455;-65
2022/05/20 05:05:26;;;;;;;47.10;36.42;;;;;;;15.26;68.15;102026.88;5009731;28;20062;-63
2022/05/20 05:07:53;;;;;;;40.20;34.08;;;;;;;15.30;68.15;102023.31;5009607;28;20034;-63
2022/05/20 05:10:22;;;;;;;39.03;32.88;;;;;;;15.36;68.10;102032.63;5008303;28;20041;-65
2022/05/20 05:12:48;;;;;;;38.50;33.25;;;;;;;15.33;68.46;102016.38;4999485;28;20390;-65
2022/05/20 05:15:14;;;;;;;35.22;31.48;;;;;;;15.40;68.11;102017.84;4996934;28;20026;-66
2022/05/20 05:20:33;;;;;;;25.70;21.58;;;;;;;15.79;69.13;102025.44;5008017;28;20529;-66
2022/05/20 05:23:00;;;;;;;36.70;29.85;;;;;;;15.75;67.84;102016.69;5009641;28;20026;-66
2022/05/20 05:25:27;;;;;;;33.88;30.27;;;;;;;15.75;67.79;102027.91;5005742;28;20738;-65
2022/05/20 05:27:53;;;;;;;34.72;30.92;;;;;;;15.79;67.65;102026.28;5011384;28;20398;-65
2022/05/20 05:30:19;;;;;;;36.83;32.58;;;;;;;15.71;68.05;102021.13;5008319;28;20648;-66
2022/05/20 05:32:44;;;;;;;37.20;33.28;;;;;;;15.76;68.17;102017.53;5009655;28;20096;-63
2022/05/20 05:35:13;;;;;;;36.95;33.03;;;;;;;15.79;67.98;102017.03;5002704;28;20029;-61
2022/05/20 05:37:41;;;;;;;41.13;33.40;;;;;;;15.83;68.14;102010.66;5004101;28;20121;-62
2022/05/20 05:40:09;;;;;;;38.95;34.72;;;;;;;15.84;67.96;101995.56;5002891;28;20473;-62
2022/05/20 05:42:34;;;;;;;38.50;34.53;;;;;;;15.85;68.07;101986.03;5010080;28;20468;-62
2022/05/20 05:45:00;;;;;;;39.13;34.42;;;;;;;15.88;68.29;101987.50;5011764;28;20113;-63
2022/05/20 05:47:26;;;;;;;41.53;34.55;;;;;;;15.88;68.72;101985.53;5006200;28;20041;-62
2022/05/20 05:49:51;;;;;;;41.22;34.53;;;;;;;15.94;68.70;101984.47;5007432;28;20452;-63
2022/05/20 05:52:16;;;;;;;38.92;34.72;;;;;;;15.94;69.25;101994.81;5007809;28;20026;-61
2022/05/20 05:54:42;;;;;;;38.97;33.35;;;;;;;15.94;69.13;101978.88;5006896;28;20107;-61
2022/05/20 05:57:07;;;;;;;36.63;32.80;;;;;;;16.02;69.38;101982.31;5007779;28;20036;-61
2022/05/20 05:59:33;;;;;;;37.25;33.17;;;;;;;16.09;69.04;101980.16;5005645;28;20025;-60
2022/05/20 06:02:00;;;;;;;36.53;32.28;;;;;;;16.11;69.25;101989.13;5006353;28;20084;-61
2022/05/20 06:04:27;;;;;;;38.75;32.65;;;;;;;16.20;69.03;101990.38;5005933;28;20025;-61
2022/05/20 06:06:53;;;;;;;37.65;31.65;;;;;;;16.27;68.59;101992.94;5007307;28;20044;-61
2022/05/20 06:09:18;;;;;;;33.90;30.25;;;;;;;16.32;69.09;101977.06;5007531;28;20037;-61
2022/05/20 06:11:43;;;;;;;32.22;28.73;;;;;;;16.44;68.24;101988.94;5005801;28;20040;-61
2022/05/20 06:14:08;;;;;;;32.00;28.48;;;;;;;16.54;67.88;101987.34;5000995;28;20371;-60
2022/05/20 06:16:34;;;;;;;31.52;28.17;;;;;;;16.65;67.56;101975.97;5007568;28;20030;-61
2022/05/20 06:18:59;;;;;;;32.10;28.00;;;;;;;16.68;67.68;101977.41;5007640;28;20470;-62
2022/05/20 06:21:26;;;;;;;30.80;26.75;;;;;;;16.68;67.55;101981.03;5005851;28;20029;-61
2022/05/20 06:23:51;;;;;;;28.25;24.95;;;;;;;16.73;66.86;101983.06;5006877;28;20026;-61
2022/05/20 06:26:17;;;;;;;29.40;23.52;;;;;;;16.85;66.65;101980.09;5007866;28;20096;-64
2022/05/20 06:28:42;;;;;;;27.88;23.15;;;;;;;16.86;66.25;101979.84;5006829;28;20033;-65
2022/05/20 06:31:07;;;;;;;26.15;22.10;;;;;;;16.93;65.74;101971.19;5008027;28;20093;-64
2022/05/20 06:33:32;;;;;;;25.08;22.08;;;;;;;16.95;65.64;101970.94;5008569;28;20037;-65
2022/05/20 06:41:33;;;;;;;24.27;19.58;;;;;;;16.93;65.33;101957.16;5000512;28;20042;-66
2022/05/20 06:44:02;;;;;;;21.67;18.77;;;;;;;16.91;64.74;101949.03;5005246;28;20481;-66
2022/05/20 06:46:28;;;;;;;23.17;18.67;;;;;;;16.91;64.84;101946.22;5009162;28;20447;-64
2022/05/20 06:48:55;;;;;;;23.60;19.52;;;;;;;16.93;64.28;101948.75;5007898;28;20026;-64
2022/05/20 06:51:27;;;;;;;23.75;19.10;;;;;;;17.00;64.48;101945.72;5010089;28;20032;-64
2022/05/20 06:53:59;;;;;;;22.47;18.77;;;;;;;17.07;64.65;101949.13;5009198;28;20490;-64
2022/05/20 06:56:28;;;;;;;18.10;14.52;;;;;;;17.12;64.04;101944.38;5006509;28;20296;-64
2022/05/20 06:58:54;;;;;;;25.63;19.00;;;;;;;17.10;63.80;101941.03;5005879;28;20041;-63
2022/05/20 07:01:19;;;;;;;24.17;19.25;;;;;;;17.09;63.84;101941.28;5006641;28;20025;-63
2022/05/20 07:03:45;;;;;;;21.70;17.33;;;;;;;17.11;64.29;101933.44;5003077;28;20022;-63
2022/05/20 07:06:13;;;;;;;16.00;10.57;;;;;;;17.47;64.84;101933.66;5003727;28;20363;-63
2022/05/20 07:08:38;;;;;;;17.48;13.57;;;;;;;17.53;63.94;101927.78;5007506;28;20030;-63
2022/05/20 07:11:05;;;;;;;14.57;10.88;;;;;;;17.62;63.08;101925.31;5005230;28;20049;-64
2022/05/20 07:13:32;;;;;;;14.00;11.68;;;;;;;17.62;62.20;101922.50;5009187;28;20160;-64
2022/05/20 07:15:58;;;;;;;17.80;13.55;;;;;;;17.59;61.57;101911.81;5009822;28;20041;-64
2022/05/20 07:18:26;;;;;;;20.17;14.55;;;;;;;17.65;61.74;101916.34;4994596;28;20030;-64
2022/05/20 07:20:51;;;;;;;18.60;14.50;;;;;;;17.67;60.98;101905.66;5002629;28;20113;-64
2022/05/20 07:23:16;;;;;;;18.52;14.32;;;;;;;17.61;60.27;101906.78;5005533;28;20045;-64
2022/05/20 07:25:42;;;;;;;16.65;12.35;;;;;;;17.65;61.29;101907.91;5008236;28;20041;-64
2022/05/20 07:28:07;;;;;;;20.65;13.88;;;;;;;17.72;60.84;101911.28;5010511;28;20034;-63
2022/05/20 07:30:33;;;;;;;17.73;12.70;;;;;;;17.80;60.21;101899.56;5011884;28;20030;-64
2022/05/20 07:32:58;;;;;;;17.58;11.85;;;;;;;17.91;60.77;101892.84;5003869;28;20160;-63
2022/05/20 07:35:23;;;;;;;16.05;11.38;;;;;;;18.01;59.86;101896.81;5010443;28;20041;-62
2022/05/20 07:37:50;;;;;;;14.52;10.57;;;;;;;18.06;58.96;101905.25;5008443;28;20046;-63
2022/05/20 07:40:17;;;;;;;10.48;7.25;;;;;;;18.21;59.58;101905.28;4996570;28;20031;-62
2022/05/20 07:42:43;;;;;;;13.45;9.73;;;;;;;18.24;58.16;101899.09;4995634;28;20070;-64
2022/05/20 07:45:09;;;;;;;12.68;9.30;;;;;;;18.25;58.00;101900.78;4994535;28;20518;-63
2022/05/20 07:47:34;;;;;;;12.60;9.75;;;;;;;18.25;58.45;101886.72;4993894;28;20035;-64
2022/05/20 07:50:00;;;;;;;11.80;8.95;;;;;;;18.34;59.25;101875.75;5010437;28;20100;-64
2022/05/20 07:55:15;;;;;;;11.88;10.52;;;;;;;18.47;57.85;101861.16;5015110;28;20040;-63
2022/05/20 07:57:40;;;;;;;12.35;9.07;;;;;;;18.56;58.10;101870.72;5012142;28;20026;-64
2022/05/20 08:00:09;;;;;;;10.88;8.05;;;;;;;18.66;56.92;101875.47;5013652;28;20057;-64
2022/05/20 08:02:34;;;;;;;13.63;8.05;;;;;;;18.69;56.48;101858.03;5013254;28;20396;-64
2022/05/20 08:05:01;;;;;;;11.75;8.70;;;;;;;18.72;56.07;101846.25;5012118;28;20034;-64
2022/05/20 08:07:28;;;;;;;10.25;8.30;;;;;;;18.73;56.42;101845.13;5013182;28;20065;-64
2022/05/20 08:09:56;;;;;;;12.40;8.82;;;;;;;18.79;56.21;101838.38;5007305;28;20505;-63
2022/05/20 08:12:21;;;;;;;8.43;7.07;;;;;;;18.92;55.73;101842.56;5013586;28;20032;-63
2022/05/20 08:14:48;;;;;;;12.98;7.60;;;;;;;18.99;55.01;101842.25;5013041;28;20116;-63
2022/05/20 08:17:14;;;;;;;12.23;8.45;;;;;;;18.97;54.11;101850.97;5012718;28;20034;-64
2022/05/20 08:19:39;;;;;;;15.10;8.55;;;;;;;19.01;54.90;101843.66;5013821;28;20025;-63
2022/05/20 08:22:05;;;;;;;9.35;7.50;;;;;;;19.01;54.63;101845.63;5012699;28;20367;-63
2022/05/20 08:24:30;;;;;;;12.30;7.82;;;;;;;19.08;55.22;101848.97;5012450;28;20022;-64
2022/05/20 08:26:56;;;;;;;11.88;9.40;;;;;;;19.10;54.67;101836.31;5015114;28;20508;-64
2022/05/20 08:29:22;;;;;;;11.13;8.55;;;;;;;19.16;54.68;101830.66;5007922;28;20022;-66
2022/05/20 08:31:47;;;;;;;9.40;8.18;;;;;;;19.14;53.26;101830.97;4993460;28;20034;-65
2022/05/20 08:34:13;;;;;;;12.35;8.05;;;;;;;19.16;54.67;101828.69;5005087;28;20136;-62
2022/05/20 08:36:39;;;;;;;12.27;9.07;;;;;;;19.16;54.48;101825.88;5011139;28;20096;-64
2022/05/20 08:39:05;;;;;;;12.80;9.18;;;;;;;19.11;55.10;101823.09;5010682;28;20054;-64
2022/05/20 08:41:41;;;;;;;11.02;9.35;;;;;;;19.07;55.33;101805.94;4994808;28;20117;-64
2022/05/20 08:44:12;;;;;;;14.10;10.25;;;;;;;19.08;54.90;101795.50;5011397;28;20033;-64
2022/05/20 08:46:39;;;;;;;14.10;9.07;;;;;;;19.10;55.40;101791.28;5012332;28;20026;-64
2022/05/20 08:49:07;;;;;;;15.15;9.02;;;;;;;19.12;55.46;101768.47;5012383;28;20022;-64
2022/05/20 08:51:37;;;;;;;17.48;11.77;;;;;;;19.17;55.33;101767.59;5011150;28;20050;-64
2022/05/20 08:54:06;;;;;;;15.25;11.70;;;;;;;19.20;55.60;101764.22;5008992;28;20041;-64
2022/05/20 08:56:31;;;;;;;14.95;11.93;;;;;;;19.25;55.43;101758.56;5012894;28;20113;-64
2022/05/20 08:59:00;;;;;;;12.65;9.93;;;;;;;19.33;55.48;101755.97;5012664;28;20108;-64
2022/05/20 09:01:28;;;;;;;21.52;12.27;;;;;;;19.42;55.99;101775.09;5012067;28;20053;-63
2022/05/20 09:03:53;;;;;;;15.73;11.52;;;;;;;19.48;55.85;101782.38;5012429;28;20045;-64
2022/05/20 09:06:19;;;;;;;17.70;12.35;;;;;;;19.43;55.92;101776.78;5012161;28;20029;-64
2022/05/20 09:09:02;;;;;;;15.20;11.88;;;;;;;19.40;56.18;101764.09;5012515;28;20029;-64
2022/05/20 09:11:30;;;;;;;;;;;;;;;19.45;56.36;101766.88;5008333;28;20034;-64
2022/05/20 09:17:13;;;;;;;18.38;12.98;;;;;;;19.38;56.13;101755.97;5008595;28;20057;-64
2022/05/20 09:19:52;;;;;;;18.55;13.75;;;;;;;19.39;56.26;101739.91;5013165;28;20482;-64
2022/05/20 09:22:26;;;;;;;16.65;14.23;;;;;;;19.55;56.73;101729.38;5009080;28;20386;-64
2022/05/20 09:24:51;;;;;;;17.50;13.55;;;;;;;19.65;56.60;101731.31;5005631;28;20109;-64
2022/05/20 09:27:33;;;;;;;16.77;13.60;;;;;;;19.64;56.27;101716.38;5005784;28;20117;-64
2022/05/20 09:30:10;;;;;;;20.48;13.80;;;;;;;19.74;56.18;101710.69;5006984;28;20391;-63
2022/05/20 09:32:47;;;;;;;20.88;13.95;;;;;;;19.79;55.92;101705.00;5007017;28;20036;-64
2022/05/20 09:35:22;;;;;;;17.55;14.40;;;;;;;19.81;56.22;101702.75;5005774;28;20034;-64
2022/05/20 09:37:50;;;;;;;16.27;12.32;;;;;;;19.80;56.29;101703.84;5004424;28;20097;-63
2022/05/20 09:40:47;;;;;;;22.20;13.85;;;;;;;19.80;56.05;101706.66;5006889;28;20727;-62
2022/05/20 09:43:25;;;;;;;19.80;14.40;;;;;;;19.84;56.11;101695.66;5007012;28;20044;-63
2022/05/20 09:45:51;;;;;;;22.38;15.27;;;;;;;19.89;55.37;101677.91;5008366;28;20069;-63
2022/05/20 09:48:48;;;;;;;14.93;11.77;;;;;;;19.97;56.18;101669.63;5009204;28;20064;-63
2022/05/20 09:51:21;;;;;;;19.55;14.20;;;;;;;20.07;56.14;101652.59;5007931;28;20025;-64
2022/05/20 09:54:09;;;;;;;21.23;14.70;;;;;;;20.15;56.16;101639.84;5005073;28;20100;-64
2022/05/20 09:56:40;;;;;;;21.58;16.55;;;;;;;20.26;56.10;101647.06;5008002;28;20033;-64
2022/05/20 09:59:40;;;;;;;19.38;15.02;;;;;;;20.39;57.09;101645.47;5005136;28;20048;-64
2022/05/20 10:02:19;;;;;;;27.35;17.58;;;;;;;20.46;56.71;101633.84;5005847;28;20073;-64
2022/05/20 10:04:56;;;;;;;20.58;15.73;;;;;;;20.49;56.13;101620.03;5006861;28;20042;-64
2022/05/20 10:08:07;;;;;;;24.02;14.98;;;;;;;20.57;56.81;101610.06;5009398;28;20079;-64
2022/05/20 10:10:39;;;;;;;21.65;14.32;;;;;;;20.59;55.85;101590.84;4982687;28;20831;-64
2022/05/20 10:13:08;;;;;;;17.60;13.00;;;;;;;20.64;55.48;101593.59;5007835;28;20184;-64
2022/05/20 10:15:46;;;;;;;19.27;11.80;;;;;;;20.66;55.47;101588.47;5008328;28;20493;-63
2022/05/20 10:18:30;;;;;;;19.92;12.98;;;;;;;20.67;55.89;101576.09;5006060;28;20498;-64
2022/05/20 10:21:11;;;;;;;20.92;14.27;;;;;;;20.70;55.76;101578.28;5003935;28;20044;-64
2022/05/20 10:23:44;;;;;;;18.83;12.45;;;;;;;20.75;55.59;101569.75;4999991;28;20034;-63
2022/05/20 10:26:25;;;;;;;20.05;14.45;;;;;;;20.73;55.88;101557.91;5006957;28;20022;-62
2022/05/20 10:34:52;;;;;;;19.65;14.10;;;;;;;20.81;55.18;101540.31;5010918;28;20080;-63
2022/05/20 10:37:40;;;;;;;17.90;12.43;;;;;;;20.83;55.22;101532.38;5013750;28;20030;-63
2022/05/20 10:40:23;;;;;;;19.63;11.90;;;;;;;20.85;55.04;101526.44;5014675;28;20036;-64
2022/05/20 10:43:22;;;;;;;18.50;13.52;;;;;;;20.79;55.36;101517.22;5004260;28;20030;-63
2022/05/20 10:49:10;;;;;;;19.48;13.40;;;;;;;20.73;55.41;101489.38;5005264;28;20073;-64
2022/05/20 10:51:43;;;;;;;16.85;11.50;;;;;;;20.82;55.63;101465.78;4995934;28;20041;-64
2022/05/20 10:54:46;;;;;;;21.42;15.45;;;;;;;20.77;55.57;101457.44;5007912;28;20033;-64
2022/05/20 10:57:21;;;;;;;16.60;12.50;;;;;;;20.78;55.45;101444.16;5008707;28;20026;-64
2022/05/20 11:00:05;;;;;;;18.48;13.40;;;;;;;20.80;55.67;101433.41;5004696;28;20104;-64
2022/05/20 11:02:48;;;;;;;15.45;10.75;;;;;;;20.83;55.44;101416.72;5007041;28;20052;-64
2022/05/20 11:05:22;;;;;;;16.25;11.68;;;;;;;20.82;55.51;101411.34;5009838;28;20121;-63
2022/05/20 11:07:50;;;;;;;15.48;11.68;;;;;;;20.82;55.59;101389.63;5009781;28;20453;-63
2022/05/20 11:10:24;;;;;;;17.55;12.75;;;;;;;20.86;55.41;101383.34;5003789;28;20037;-64
2022/05/20 11:13:09;;;;;;;21.15;12.90;;;;;;;20.87;55.58;101376.56;5009573;28;20057;-63
2022/05/20 11:15:40;;;;;;;21.35;16.30;;;;;;;20.79;56.50;101372.50;5009201;28;20030;-64
2022/05/20 11:18:23;;;;;;;20.97;13.83;;;;;;;20.82;56.04;101374.69;5012583;28;20111;-64
2022/05/20 11:21:04;;;;;;;15.65;12.90;;;;;;;20.83;56.31;101370.72;5014351;28;20038;-63
2022/05/20 11:23:37;;;;;;;21.30;15.60;;;;;;;20.79;56.42;101359.22;5010016;28;20038;-63
2022/05/20 11:26:20;;;;;;;23.88;17.73;;;;;;;20.80;57.19;101360.88;5015085;28;20053;-63
2022/05/20 11:28:54;;;;;;;19.45;14.30;;;;;;;20.84;57.09;101349.81;5012033;28;20105;-64
2022/05/20 11:31:49;;;;;;;20.48;15.93;;;;;;;20.89;56.95;101348.88;5012436;28;20117;-63
2022/05/20 11:35:01;;;;;;;20.92;13.00;;;;;;;20.91;57.03;101349.44;5004070;28;20042;-63
2022/05/20 11:37:59;;;;;;;24.23;20.25;;;;;;;20.84;57.53;101350.66;5011013;28;20068;-63
2022/05/20 11:40:53;;;;;;;17.42;13.95;;;;;;;20.87;57.11;101337.06;5008839;28;20022;-63
2022/05/20 11:44:00;;;;;;;27.98;20.63;;;;;;;20.81;57.90;101340.00;5004666;28;20029;-64
2022/05/20 11:46:50;;;;;;;29.52;22.08;;;;;;;20.75;57.78;101341.25;5008385;28;20099;-64
2022/05/20 11:49:36;;;;;;;25.75;17.65;;;;;;;20.79;57.92;101333.84;5012898;28;20085;-64
2022/05/20 11:52:07;;;;;;;30.52;22.33;;;;;;;20.72;58.75;101313.66;5014028;28;20032;-64
2022/05/20 11:54:43;;;;;;;29.30;20.57;;;;;;;20.79;58.11;101290.69;5009768;28;20041;-64
2022/05/20 11:57:13;;;;;;;24.35;16.77;;;;;;;20.75;58.39;101275.50;5007621;28;20089;-63
2022/05/20 11:59:49;;;;;;;25.38;20.15;;;;;;;20.72;58.85;101293.91;5013677;28;20030;-64
2022/05/20 12:02:17;;;;;;;30.00;21.27;;;;;;;20.68;59.57;101295.66;5005771;28;20087;-64